sensor_id;sensor_type;location;lat;lon;timestamp;P1;durP1;ratioP1;P2;durP2;ratioP2
74894;SDS011;63447;49.446;8.666;2023-08-24T00:02:10;5.95;;;3.80;;
74894;SDS011;63447;49.446;8.666;2023-08-24T00:04:35;7.50;;;3.60;;
74894;SDS011;63447;49.446;8.666;2023-08-24T00:07:01;7.60;;;3.95;;
74894;SDS011;63447;49.446;8.666;2023-08-24T00:09:26;7.30;;;3.67;;
74894;SDS011;63447;49.446;8.666;2023-08-24T00:11:54;5.68;;;3.35;;
74894;SDS011;63447;49.446;8.666;2023-08-24T00:14:20;6.18;;;3.50;;
74894;SDS011;63447;49.446;8.666;2023-08-24T00:16:46;6.07;;;3.97;;
74894;SDS011;63447;49.446;8.666;2023-08-24T00:19:11;6.73;;;3.63;;
74894;SDS011;63447;49.446;8.666;2023-08-24T00:21:36;7.15;;;4.00;;
74894;SDS011;63447;49.446;8.666;2023-08-24T00:24:02;6.87;;;4.00;;
74894;SDS011;63447;49.446;8.666;2023-08-24T00:26:27;7.63;;;3.95;;
74894;SDS011;63447;49.446;8.666;2023-08-24T00:28:55;6.43;;;3.67;;
74894;SDS011;63447;49.446;8.666;2023-08-24T00:31:20;8.02;;;4.35;;
74894;SDS011;63447;49.446;8.666;2023-08-24T00:33:46;8.50;;;4.32;;
74894;SDS011;63447;49.446;8.666;2023-08-24T00:36:11;8.38;;;4.20;;
74894;SDS011;63447;49.446;8.666;2023-08-24T00:38:38;8.23;;;5.03;;
74894;SDS011;63447;49.446;8.666;2023-08-24T00:41:04;6.15;;;3.85;;
74894;SDS011;63447;49.446;8.666;2023-08-24T00:43:30;8.32;;;4.20;;
74894;SDS011;63447;49.446;8.666;2023-08-24T00:45:56;8.32;;;4.53;;
74894;SDS011;63447;49.446;8.666;2023-08-24T00:48:26;8.70;;;4.65;;
74894;SDS011;63447;49.446;8.666;2023-08-24T00:50:54;7.72;;;3.90;;
74894;SDS011;63447;49.446;8.666;2023-08-24T00:53:23;7.38;;;4.32;;
74894;SDS011;63447;49.446;8.666;2023-08-24T00:55:54;6.05;;;4.38;;
74894;SDS011;63447;49.446;8.666;2023-08-24T00:58:20;8.07;;;4.72;;
74894;SDS011;63447;49.446;8.666;2023-08-24T01:00:46;7.70;;;4.57;;
74894;SDS011;63447;49.446;8.666;2023-08-24T01:03:15;9.07;;;5.07;;
74894;SDS011;63447;49.446;8.666;2023-08-24T01:05:41;6.47;;;4.25;;
74894;SDS011;63447;49.446;8.666;2023-08-24T01:08:08;9.52;;;5.40;;
74894;SDS011;63447;49.446;8.666;2023-08-24T01:10:40;8.27;;;4.57;;
74894;SDS011;63447;49.446;8.666;2023-08-24T01:13:15;7.57;;;4.60;;
74894;SDS011;63447;49.446;8.666;2023-08-24T01:16:08;7.22;;;4.47;;
74894;SDS011;63447;49.446;8.666;2023-08-24T01:18:37;7.05;;;4.20;;
74894;SDS011;63447;49.446;8.666;2023-08-24T01:21:04;8.55;;;4.85;;
74894;SDS011;63447;49.446;8.666;2023-08-24T01:23:40;9.05;;;4.60;;
74894;SDS011;63447;49.446;8.666;2023-08-24T01:26:14;7.57;;;4.80;;
74894;SDS011;63447;49.446;8.666;2023-08-24T01:28:42;7.20;;;4.38;;
74894;SDS011;63447;49.446;8.666;2023-08-24T01:31:09;7.65;;;5.15;;
74894;SDS011;63447;49.446;8.666;2023-08-24T01:33:34;7.50;;;4.20;;
74894;SDS011;63447;49.446;8.666;2023-08-24T01:36:00;8.27;;;4.18;;
74894;SDS011;63447;49.446;8.666;2023-08-24T01:38:25;8.05;;;4.82;;
74894;SDS011;63447;49.446;8.666;2023-08-24T01:40:53;8.93;;;4.85;;
74894;SDS011;63447;49.446;8.666;2023-08-24T01:43:20;7.95;;;4.72;;
74894;SDS011;63447;49.446;8.666;2023-08-24T01:45:51;8.32;;;4.85;;
74894;SDS011;63447;49.446;8.666;2023-08-24T01:48:18;8.25;;;4.57;;
74894;SDS011;63447;49.446;8.666;2023-08-24T01:50:44;7.72;;;4.63;;
74894;SDS011;63447;49.446;8.666;2023-08-24T01:53:11;6.72;;;4.68;;
74894;SDS011;63447;49.446;8.666;2023-08-24T01:55:39;7.65;;;4.50;;
74894;SDS011;63447;49.446;8.666;2023-08-24T01:58:04;9.63;;;4.60;;
74894;SDS011;63447;49.446;8.666;2023-08-24T02:00:29;7.43;;;4.70;;
74894;SDS011;63447;49.446;8.666;2023-08-24T02:02:55;8.27;;;5.20;;
74894;SDS011;63447;49.446;8.666;2023-08-24T02:05:20;7.18;;;4.70;;
74894;SDS011;63447;49.446;8.666;2023-08-24T02:07:46;8.65;;;4.55;;
74894;SDS011;63447;49.446;8.666;2023-08-24T02:10:11;8.43;;;4.60;;
74894;SDS011;63447;49.446;8.666;2023-08-24T02:12:36;7.88;;;5.25;;
74894;SDS011;63447;49.446;8.666;2023-08-24T02:15:02;12.15;;;5.38;;
74894;SDS011;63447;49.446;8.666;2023-08-24T02:17:27;7.00;;;4.65;;
74894;SDS011;63447;49.446;8.666;2023-08-24T02:19:53;7.45;;;4.95;;
74894;SDS011;63447;49.446;8.666;2023-08-24T02:22:20;10.10;;;4.82;;
74894;SDS011;63447;49.446;8.666;2023-08-24T02:24:46;8.48;;;5.13;;
74894;SDS011;63447;49.446;8.666;2023-08-24T02:27:14;11.18;;;5.88;;
74894;SDS011;63447;49.446;8.666;2023-08-24T02:29:39;9.52;;;5.35;;
74894;SDS011;63447;49.446;8.666;2023-08-24T02:32:05;7.70;;;5.43;;
74894;SDS011;63447;49.446;8.666;2023-08-24T02:34:30;9.30;;;5.60;;
74894;SDS011;63447;49.446;8.666;2023-08-24T02:36:56;9.90;;;5.50;;
74894;SDS011;63447;49.446;8.666;2023-08-24T02:39:22;8.02;;;5.32;;
74894;SDS011;63447;49.446;8.666;2023-08-24T02:41:50;8.45;;;5.45;;
74894;SDS011;63447;49.446;8.666;2023-08-24T02:44:15;8.30;;;5.40;;
74894;SDS011;63447;49.446;8.666;2023-08-24T02:46:43;9.73;;;5.33;;
74894;SDS011;63447;49.446;8.666;2023-08-24T02:49:09;11.15;;;5.30;;
74894;SDS011;63447;49.446;8.666;2023-08-24T02:51:35;9.65;;;5.32;;
74894;SDS011;63447;49.446;8.666;2023-08-24T02:54:00;10.37;;;5.40;;
74894;SDS011;63447;49.446;8.666;2023-08-24T02:56:25;9.30;;;5.07;;
74894;SDS011;63447;49.446;8.666;2023-08-24T02:58:51;8.82;;;5.10;;
74894;SDS011;63447;49.446;8.666;2023-08-24T03:01:16;8.23;;;5.00;;
74894;SDS011;63447;49.446;8.666;2023-08-24T03:03:41;7.60;;;4.80;;
74894;SDS011;63447;49.446;8.666;2023-08-24T03:06:07;8.10;;;5.10;;
74894;SDS011;63447;49.446;8.666;2023-08-24T03:08:33;8.68;;;5.28;;
74894;SDS011;63447;49.446;8.666;2023-08-24T03:10:59;8.60;;;5.20;;
74894;SDS011;63447;49.446;8.666;2023-08-24T03:13:25;9.57;;;5.30;;
74894;SDS011;63447;49.446;8.666;2023-08-24T03:15:51;8.57;;;4.82;;
74894;SDS011;63447;49.446;8.666;2023-08-24T03:18:19;8.30;;;5.00;;
74894;SDS011;63447;49.446;8.666;2023-08-24T03:20:45;9.77;;;5.10;;
74894;SDS011;63447;49.446;8.666;2023-08-24T03:23:12;7.90;;;5.30;;
74894;SDS011;63447;49.446;8.666;2023-08-24T03:25:40;7.05;;;4.95;;
74894;SDS011;63447;49.446;8.666;2023-08-24T03:28:07;8.07;;;5.35;;
74894;SDS011;63447;49.446;8.666;2023-08-24T03:30:33;8.32;;;5.28;;
74894;SDS011;63447;49.446;8.666;2023-08-24T03:33:02;8.50;;;4.85;;
74894;SDS011;63447;49.446;8.666;2023-08-24T03:35:31;10.00;;;4.90;;
74894;SDS011;63447;49.446;8.666;2023-08-24T03:37:57;8.25;;;5.28;;
74894;SDS011;63447;49.446;8.666;2023-08-24T03:40:25;7.57;;;5.32;;
74894;SDS011;63447;49.446;8.666;2023-08-24T03:42:50;7.95;;;5.03;;
74894;SDS011;63447;49.446;8.666;2023-08-24T03:45:18;7.55;;;4.75;;
74894;SDS011;63447;49.446;8.666;2023-08-24T03:47:44;8.30;;;5.45;;
74894;SDS011;63447;49.446;8.666;2023-08-24T03:50:12;7.57;;;5.22;;
74894;SDS011;63447;49.446;8.666;2023-08-24T03:52:38;7.95;;;5.45;;
74894;SDS011;63447;49.446;8.666;2023-08-24T03:55:04;9.45;;;5.20;;
74894;SDS011;63447;49.446;8.666;2023-08-24T03:57:32;8.43;;;5.53;;
74894;SDS011;63447;49.446;8.666;2023-08-24T03:59:58;7.57;;;4.87;;
74894;SDS011;63447;49.446;8.666;2023-08-24T04:02:25;8.85;;;3.60;;
74894;SDS011;63447;49.446;8.666;2023-08-24T04:04:51;7.50;;;3.20;;
74894;SDS011;63447;49.446;8.666;2023-08-24T04:07:22;6.20;;;3.15;;
74894;SDS011;63447;49.446;8.666;2023-08-24T04:09:47;5.30;;;2.90;;
74894;SDS011;63447;49.446;8.666;2023-08-24T04:12:12;4.60;;;2.70;;
74894;SDS011;63447;49.446;8.666;2023-08-24T04:14:40;6.45;;;3.33;;
74894;SDS011;63447;49.446;8.666;2023-08-24T04:17:05;6.57;;;3.60;;
74894;SDS011;63447;49.446;8.666;2023-08-24T04:19:31;6.70;;;4.27;;
74894;SDS011;63447;49.446;8.666;2023-08-24T04:21:56;6.88;;;4.47;;
74894;SDS011;63447;49.446;8.666;2023-08-24T04:24:22;7.53;;;4.73;;
74894;SDS011;63447;49.446;8.666;2023-08-24T04:26:47;7.35;;;4.20;;
74894;SDS011;63447;49.446;8.666;2023-08-24T04:29:15;9.00;;;4.78;;
74894;SDS011;63447;49.446;8.666;2023-08-24T04:31:40;7.57;;;5.00;;
74894;SDS011;63447;49.446;8.666;2023-08-24T04:34:07;8.63;;;4.85;;
74894;SDS011;63447;49.446;8.666;2023-08-24T04:36:34;8.40;;;5.22;;
74894;SDS011;63447;49.446;8.666;2023-08-24T04:38:59;7.00;;;4.90;;
74894;SDS011;63447;49.446;8.666;2023-08-24T04:41:27;7.53;;;4.97;;
74894;SDS011;63447;49.446;8.666;2023-08-24T04:43:52;8.53;;;5.20;;
74894;SDS011;63447;49.446;8.666;2023-08-24T04:46:17;8.77;;;5.20;;
74894;SDS011;63447;49.446;8.666;2023-08-24T04:48:43;8.93;;;5.10;;
74894;SDS011;63447;49.446;8.666;2023-08-24T04:51:08;8.33;;;5.50;;
74894;SDS011;63447;49.446;8.666;2023-08-24T04:53:36;8.68;;;4.68;;
74894;SDS011;63447;49.446;8.666;2023-08-24T04:56:01;8.15;;;5.30;;
74894;SDS011;63447;49.446;8.666;2023-08-24T04:58:26;7.87;;;4.80;;
74894;SDS011;63447;49.446;8.666;2023-08-24T05:00:52;9.00;;;5.35;;
74894;SDS011;63447;49.446;8.666;2023-08-24T05:03:17;9.77;;;5.50;;
74894;SDS011;63447;49.446;8.666;2023-08-24T05:05:42;10.45;;;5.03;;
74894;SDS011;63447;49.446;8.666;2023-08-24T05:08:08;8.20;;;5.43;;
74894;SDS011;63447;49.446;8.666;2023-08-24T05:10:36;10.10;;;5.35;;
74894;SDS011;63447;49.446;8.666;2023-08-24T05:13:02;8.65;;;5.40;;
74894;SDS011;63447;49.446;8.666;2023-08-24T05:15:28;8.75;;;5.80;;
74894;SDS011;63447;49.446;8.666;2023-08-24T05:17:53;10.38;;;6.15;;
74894;SDS011;63447;49.446;8.666;2023-08-24T05:20:21;11.27;;;6.70;;
74894;SDS011;63447;49.446;8.666;2023-08-24T05:22:50;10.95;;;6.03;;
74894;SDS011;63447;49.446;8.666;2023-08-24T05:25:16;10.98;;;6.95;;
74894;SDS011;63447;49.446;8.666;2023-08-24T05:27:44;11.82;;;6.15;;
74894;SDS011;63447;49.446;8.666;2023-08-24T05:30:09;11.35;;;6.53;;
74894;SDS011;63447;49.446;8.666;2023-08-24T05:32:38;8.02;;;6.00;;
74894;SDS011;63447;49.446;8.666;2023-08-24T05:35:06;10.30;;;6.22;;
74894;SDS011;63447;49.446;8.666;2023-08-24T05:37:35;9.07;;;5.93;;
74894;SDS011;63447;49.446;8.666;2023-08-24T05:40:05;9.38;;;6.50;;
74894;SDS011;63447;49.446;8.666;2023-08-24T05:42:34;9.88;;;5.72;;
74894;SDS011;63447;49.446;8.666;2023-08-24T05:45:01;12.23;;;5.78;;
74894;SDS011;63447;49.446;8.666;2023-08-24T05:47:27;10.48;;;5.93;;
74894;SDS011;63447;49.446;8.666;2023-08-24T05:49:54;11.93;;;6.40;;
74894;SDS011;63447;49.446;8.666;2023-08-24T05:52:22;13.43;;;6.53;;
74894;SDS011;63447;49.446;8.666;2023-08-24T05:54:47;12.13;;;6.43;;
74894;SDS011;63447;49.446;8.666;2023-08-24T05:57:15;14.38;;;6.05;;
74894;SDS011;63447;49.446;8.666;2023-08-24T05:59:41;10.90;;;5.78;;
74894;SDS011;63447;49.446;8.666;2023-08-24T06:02:06;12.70;;;5.63;;
74894;SDS011;63447;49.446;8.666;2023-08-24T06:04:31;11.63;;;6.60;;
74894;SDS011;63447;49.446;8.666;2023-08-24T06:06:57;9.40;;;5.88;;
74894;SDS011;63447;49.446;8.666;2023-08-24T06:09:22;10.90;;;5.60;;
74894;SDS011;63447;49.446;8.666;2023-08-24T06:11:47;9.67;;;5.40;;
74894;SDS011;63447;49.446;8.666;2023-08-24T06:14:14;8.30;;;5.32;;
74894;SDS011;63447;49.446;8.666;2023-08-24T06:16:42;7.90;;;5.55;;
74894;SDS011;63447;49.446;8.666;2023-08-24T06:19:08;11.63;;;5.72;;
74894;SDS011;63447;49.446;8.666;2023-08-24T06:21:33;8.32;;;5.65;;
74894;SDS011;63447;49.446;8.666;2023-08-24T06:24:01;13.40;;;6.28;;
74894;SDS011;63447;49.446;8.666;2023-08-24T06:26:26;10.30;;;5.45;;
74894;SDS011;63447;49.446;8.666;2023-08-24T06:28:52;8.53;;;4.90;;
74894;SDS011;63447;49.446;8.666;2023-08-24T06:31:17;7.10;;;4.83;;
74894;SDS011;63447;49.446;8.666;2023-08-24T06:33:42;7.87;;;4.80;;
74894;SDS011;63447;49.446;8.666;2023-08-24T06:36:08;7.13;;;4.90;;
74894;SDS011;63447;49.446;8.666;2023-08-24T06:38:33;11.97;;;7.73;;
74894;SDS011;63447;49.446;8.666;2023-08-24T06:40:59;10.40;;;5.00;;
74894;SDS011;63447;49.446;8.666;2023-08-24T06:43:27;8.38;;;5.30;;
74894;SDS011;63447;49.446;8.666;2023-08-24T06:45:56;8.80;;;4.50;;
74894;SDS011;63447;49.446;8.666;2023-08-24T06:48:22;7.80;;;4.70;;
74894;SDS011;63447;49.446;8.666;2023-08-24T06:50:48;10.05;;;5.25;;
74894;SDS011;63447;49.446;8.666;2023-08-24T06:53:13;10.35;;;5.07;;
74894;SDS011;63447;49.446;8.666;2023-08-24T06:55:39;8.25;;;4.40;;
74894;SDS011;63447;49.446;8.666;2023-08-24T06:58:05;7.80;;;5.50;;
74894;SDS011;63447;49.446;8.666;2023-08-24T07:00:33;7.95;;;4.80;;
74894;SDS011;63447;49.446;8.666;2023-08-24T07:03:01;8.00;;;4.90;;
74894;SDS011;63447;49.446;8.666;2023-08-24T07:05:26;8.50;;;4.90;;
74894;SDS011;63447;49.446;8.666;2023-08-24T07:07:56;8.18;;;4.90;;
74894;SDS011;63447;49.446;8.666;2023-08-24T07:10:21;7.80;;;5.10;;
74894;SDS011;63447;49.446;8.666;2023-08-24T07:12:51;8.40;;;5.20;;
74894;SDS011;63447;49.446;8.666;2023-08-24T07:15:19;12.80;;;5.80;;
74894;SDS011;63447;49.446;8.666;2023-08-24T07:17:44;9.02;;;5.68;;
74894;SDS011;63447;49.446;8.666;2023-08-24T07:20:10;9.45;;;5.30;;
74894;SDS011;63447;49.446;8.666;2023-08-24T07:22:39;11.10;;;6.10;;
74894;SDS011;63447;49.446;8.666;2023-08-24T07:25:07;9.00;;;5.10;;
74894;SDS011;63447;49.446;8.666;2023-08-24T07:27:33;10.25;;;5.15;;
74894;SDS011;63447;49.446;8.666;2023-08-24T07:30:01;10.13;;;5.82;;
74894;SDS011;63447;49.446;8.666;2023-08-24T07:32:34;7.43;;;5.45;;
74894;SDS011;63447;49.446;8.666;2023-08-24T07:34:59;8.07;;;5.40;;
74894;SDS011;63447;49.446;8.666;2023-08-24T07:37:27;8.17;;;5.50;;
74894;SDS011;63447;49.446;8.666;2023-08-24T07:39:55;9.15;;;5.65;;
74894;SDS011;63447;49.446;8.666;2023-08-24T07:42:20;10.00;;;5.90;;
74894;SDS011;63447;49.446;8.666;2023-08-24T07:44:48;8.27;;;5.28;;
74894;SDS011;63447;49.446;8.666;2023-08-24T07:47:14;8.35;;;5.50;;
74894;SDS011;63447;49.446;8.666;2023-08-24T07:49:40;11.48;;;6.22;;
74894;SDS011;63447;49.446;8.666;2023-08-24T07:52:11;10.60;;;5.60;;
74894;SDS011;63447;49.446;8.666;2023-08-24T07:54:37;8.63;;;5.68;;
74894;SDS011;63447;49.446;8.666;2023-08-24T07:57:04;8.77;;;5.63;;
74894;SDS011;63447;49.446;8.666;2023-08-24T07:59:32;9.50;;;5.88;;
74894;SDS011;63447;49.446;8.666;2023-08-24T08:01:58;10.13;;;5.90;;
74894;SDS011;63447;49.446;8.666;2023-08-24T08:04:23;9.27;;;5.40;;
74894;SDS011;63447;49.446;8.666;2023-08-24T08:06:49;9.83;;;6.00;;
74894;SDS011;63447;49.446;8.666;2023-08-24T08:09:14;8.70;;;5.70;;
74894;SDS011;63447;49.446;8.666;2023-08-24T08:11:42;9.98;;;5.40;;
74894;SDS011;63447;49.446;8.666;2023-08-24T08:14:07;8.85;;;5.07;;
74894;SDS011;63447;49.446;8.666;2023-08-24T08:16:33;9.05;;;5.72;;
74894;SDS011;63447;49.446;8.666;2023-08-24T08:19:01;9.63;;;5.78;;
74894;SDS011;63447;49.446;8.666;2023-08-24T08:21:26;10.75;;;5.25;;
74894;SDS011;63447;49.446;8.666;2023-08-24T08:23:53;9.60;;;5.22;;
74894;SDS011;63447;49.446;8.666;2023-08-24T08:26:18;8.50;;;5.43;;
74894;SDS011;63447;49.446;8.666;2023-08-24T08:28:43;8.52;;;4.82;;
74894;SDS011;63447;49.446;8.666;2023-08-24T08:31:09;7.32;;;4.85;;
74894;SDS011;63447;49.446;8.666;2023-08-24T08:33:39;9.10;;;5.50;;
74894;SDS011;63447;49.446;8.666;2023-08-24T08:36:04;9.00;;;5.20;;
74894;SDS011;63447;49.446;8.666;2023-08-24T08:38:29;8.83;;;4.47;;
74894;SDS011;63447;49.446;8.666;2023-08-24T08:41:01;8.50;;;4.20;;
74894;SDS011;63447;49.446;8.666;2023-08-24T08:43:29;9.15;;;4.40;;
74894;SDS011;63447;49.446;8.666;2023-08-24T08:45:58;7.60;;;4.65;;
74894;SDS011;63447;49.446;8.666;2023-08-24T08:48:25;8.95;;;4.40;;
74894;SDS011;63447;49.446;8.666;2023-08-24T08:50:51;7.60;;;4.18;;
74894;SDS011;63447;49.446;8.666;2023-08-24T08:53:20;6.15;;;3.78;;
74894;SDS011;63447;49.446;8.666;2023-08-24T08:55:47;6.35;;;3.92;;
74894;SDS011;63447;49.446;8.666;2023-08-24T08:58:16;7.78;;;3.83;;
74894;SDS011;63447;49.446;8.666;2023-08-24T09:00:42;9.45;;;3.72;;
74894;SDS011;63447;49.446;8.666;2023-08-24T09:03:07;6.75;;;3.80;;
74894;SDS011;63447;49.446;8.666;2023-08-24T09:05:34;6.38;;;3.22;;
74894;SDS011;63447;49.446;8.666;2023-08-24T09:08:02;5.72;;;3.20;;
74894;SDS011;63447;49.446;8.666;2023-08-24T09:10:29;7.47;;;3.22;;
74894;SDS011;63447;49.446;8.666;2023-08-24T09:12:56;5.80;;;2.85;;
74894;SDS011;63447;49.446;8.666;2023-08-24T09:15:25;5.38;;;3.10;;
74894;SDS011;63447;49.446;8.666;2023-08-24T09:17:51;7.35;;;2.90;;
74894;SDS011;63447;49.446;8.666;2023-08-24T09:20:21;6.38;;;3.08;;
74894;SDS011;63447;49.446;8.666;2023-08-24T09:22:52;6.35;;;3.08;;
74894;SDS011;63447;49.446;8.666;2023-08-24T09:25:19;7.65;;;2.85;;
74894;SDS011;63447;49.446;8.666;2023-08-24T09:27:45;6.57;;;2.90;;
74894;SDS011;63447;49.446;8.666;2023-08-24T09:30:10;7.65;;;3.00;;
74894;SDS011;63447;49.446;8.666;2023-08-24T09:32:36;7.28;;;2.65;;
74894;SDS011;63447;49.446;8.666;2023-08-24T09:35:02;6.03;;;3.03;;
74894;SDS011;63447;49.446;8.666;2023-08-24T09:37:35;5.63;;;2.90;;
74894;SDS011;63447;49.446;8.666;2023-08-24T09:40:02;4.60;;;2.58;;
74894;SDS011;63447;49.446;8.666;2023-08-24T09:42:38;4.78;;;2.70;;
74894;SDS011;63447;49.446;8.666;2023-08-24T09:45:07;6.25;;;2.50;;
74894;SDS011;63447;49.446;8.666;2023-08-24T09:47:35;4.72;;;2.38;;
74894;SDS011;63447;49.446;8.666;2023-08-24T09:50:03;8.15;;;2.83;;
74894;SDS011;63447;49.446;8.666;2023-08-24T09:52:32;5.22;;;2.70;;
74894;SDS011;63447;49.446;8.666;2023-08-24T09:55:02;6.25;;;2.55;;
74894;SDS011;63447;49.446;8.666;2023-08-24T09:57:38;5.45;;;2.67;;
74894;SDS011;63447;49.446;8.666;2023-08-24T10:00:08;6.00;;;3.08;;
74894;SDS011;63447;49.446;8.666;2023-08-24T10:02:49;6.55;;;3.13;;
74894;SDS011;63447;49.446;8.666;2023-08-24T10:05:16;6.45;;;3.10;;
74894;SDS011;63447;49.446;8.666;2023-08-24T10:07:49;5.72;;;2.88;;
74894;SDS011;63447;49.446;8.666;2023-08-24T10:10:23;6.10;;;2.67;;
74894;SDS011;63447;49.446;8.666;2023-08-24T10:12:51;5.80;;;2.50;;
74894;SDS011;63447;49.446;8.666;2023-08-24T10:15:22;5.93;;;2.95;;
74894;SDS011;63447;49.446;8.666;2023-08-24T10:17:49;8.88;;;3.08;;
74894;SDS011;63447;49.446;8.666;2023-08-24T10:20:17;4.85;;;2.88;;
74894;SDS011;63447;49.446;8.666;2023-08-24T10:22:45;5.53;;;3.03;;
74894;SDS011;63447;49.446;8.666;2023-08-24T10:25:11;7.20;;;2.80;;
74894;SDS011;63447;49.446;8.666;2023-08-24T10:27:38;5.40;;;2.90;;
74894;SDS011;63447;49.446;8.666;2023-08-24T10:30:12;6.03;;;2.97;;
74894;SDS011;63447;49.446;8.666;2023-08-24T10:32:39;5.82;;;3.03;;
74894;SDS011;63447;49.446;8.666;2023-08-24T10:35:05;5.82;;;2.78;;
74894;SDS011;63447;49.446;8.666;2023-08-24T10:37:31;5.43;;;2.83;;
74894;SDS011;63447;49.446;8.666;2023-08-24T10:39:59;7.07;;;3.35;;
74894;SDS011;63447;49.446;8.666;2023-08-24T10:42:25;6.45;;;3.13;;
74894;SDS011;63447;49.446;8.666;2023-08-24T10:44:53;7.82;;;3.40;;
74894;SDS011;63447;49.446;8.666;2023-08-24T10:47:19;5.30;;;3.00;;
74894;SDS011;63447;49.446;8.666;2023-08-24T10:49:57;6.57;;;3.38;;
74894;SDS011;63447;49.446;8.666;2023-08-24T10:54:55;5.80;;;2.97;;
74894;SDS011;63447;49.446;8.666;2023-08-24T10:57:22;6.05;;;3.30;;
74894;SDS011;63447;49.446;8.666;2023-08-24T10:59:57;6.18;;;2.80;;
74894;SDS011;63447;49.446;8.666;2023-08-24T11:02:40;8.20;;;3.10;;
74894;SDS011;63447;49.446;8.666;2023-08-24T11:05:27;7.70;;;3.20;;
74894;SDS011;63447;49.446;8.666;2023-08-24T11:07:56;5.90;;;3.38;;
74894;SDS011;63447;49.446;8.666;2023-08-24T11:10:25;9.52;;;3.03;;
74894;SDS011;63447;49.446;8.666;2023-08-24T11:15:31;4.90;;;2.78;;
74894;SDS011;63447;49.446;8.666;2023-08-24T11:20:44;6.75;;;3.28;;
74894;SDS011;63447;49.446;8.666;2023-08-24T11:23:10;5.68;;;3.15;;
74894;SDS011;63447;49.446;8.666;2023-08-24T11:25:36;6.13;;;2.83;;
74894;SDS011;63447;49.446;8.666;2023-08-24T11:28:02;5.07;;;2.75;;
74894;SDS011;63447;49.446;8.666;2023-08-24T11:30:29;6.43;;;3.00;;
74894;SDS011;63447;49.446;8.666;2023-08-24T11:32:58;5.07;;;3.20;;
74894;SDS011;63447;49.446;8.666;2023-08-24T11:35:24;6.72;;;2.95;;
74894;SDS011;63447;49.446;8.666;2023-08-24T11:37:52;6.30;;;3.15;;
74894;SDS011;63447;49.446;8.666;2023-08-24T11:40:18;7.32;;;3.50;;
74894;SDS011;63447;49.446;8.666;2023-08-24T11:42:45;6.20;;;2.85;;
74894;SDS011;63447;49.446;8.666;2023-08-24T11:45:11;6.70;;;3.15;;
74894;SDS011;63447;49.446;8.666;2023-08-24T11:47:40;6.38;;;3.03;;
74894;SDS011;63447;49.446;8.666;2023-08-24T11:50:06;6.45;;;3.20;;
74894;SDS011;63447;49.446;8.666;2023-08-24T11:52:33;10.57;;;3.63;;
74894;SDS011;63447;49.446;8.666;2023-08-24T11:55:04;8.90;;;3.30;;
74894;SDS011;63447;49.446;8.666;2023-08-24T11:57:34;6.15;;;3.20;;
74894;SDS011;63447;49.446;8.666;2023-08-24T11:59:59;5.78;;;3.17;;
74894;SDS011;63447;49.446;8.666;2023-08-24T12:02:26;7.75;;;3.63;;
74894;SDS011;63447;49.446;8.666;2023-08-24T12:04:52;5.60;;;3.40;;
74894;SDS011;63447;49.446;8.666;2023-08-24T12:07:19;7.63;;;3.58;;
74894;SDS011;63447;49.446;8.666;2023-08-24T12:09:48;6.68;;;3.17;;
74894;SDS011;63447;49.446;8.666;2023-08-24T12:12:19;7.18;;;3.40;;
74894;SDS011;63447;49.446;8.666;2023-08-24T12:14:48;7.03;;;3.60;;
74894;SDS011;63447;49.446;8.666;2023-08-24T12:17:15;5.93;;;3.25;;
74894;SDS011;63447;49.446;8.666;2023-08-24T12:19:42;6.68;;;3.40;;
74894;SDS011;63447;49.446;8.666;2023-08-24T12:22:12;7.25;;;3.47;;
74894;SDS011;63447;49.446;8.666;2023-08-24T12:24:44;6.85;;;3.38;;
74894;SDS011;63447;49.446;8.666;2023-08-24T12:27:17;6.05;;;3.47;;
74894;SDS011;63447;49.446;8.666;2023-08-24T12:29:47;5.07;;;3.22;;
74894;SDS011;63447;49.446;8.666;2023-08-24T12:32:15;7.57;;;3.67;;
74894;SDS011;63447;49.446;8.666;2023-08-24T12:34:41;5.93;;;3.40;;
74894;SDS011;63447;49.446;8.666;2023-08-24T12:37:10;9.00;;;4.03;;
74894;SDS011;63447;49.446;8.666;2023-08-24T12:39:38;7.50;;;3.83;;
74894;SDS011;63447;49.446;8.666;2023-08-24T12:42:04;6.88;;;4.00;;
74894;SDS011;63447;49.446;8.666;2023-08-24T12:44:31;8.27;;;3.85;;
74894;SDS011;63447;49.446;8.666;2023-08-24T12:46:59;7.00;;;3.80;;
74894;SDS011;63447;49.446;8.666;2023-08-24T12:49:24;8.57;;;3.70;;
74894;SDS011;63447;49.446;8.666;2023-08-24T12:51:50;8.30;;;4.10;;
74894;SDS011;63447;49.446;8.666;2023-08-24T12:54:15;6.43;;;3.65;;
74894;SDS011;63447;49.446;8.666;2023-08-24T12:56:45;7.40;;;4.10;;
74894;SDS011;63447;49.446;8.666;2023-08-24T12:59:10;6.45;;;3.80;;
74894;SDS011;63447;49.446;8.666;2023-08-24T13:01:40;6.55;;;3.47;;
74894;SDS011;63447;49.446;8.666;2023-08-24T13:04:06;8.70;;;4.22;;
74894;SDS011;63447;49.446;8.666;2023-08-24T13:06:32;5.97;;;3.85;;
74894;SDS011;63447;49.446;8.666;2023-08-24T13:08:57;7.20;;;4.03;;
74894;SDS011;63447;49.446;8.666;2023-08-24T13:11:23;5.47;;;3.30;;
74894;SDS011;63447;49.446;8.666;2023-08-24T13:13:49;5.43;;;3.25;;
74894;SDS011;63447;49.446;8.666;2023-08-24T13:16:14;6.78;;;4.53;;
74894;SDS011;63447;49.446;8.666;2023-08-24T13:18:40;6.90;;;3.80;;
74894;SDS011;63447;49.446;8.666;2023-08-24T13:21:05;7.05;;;3.90;;
74894;SDS011;63447;49.446;8.666;2023-08-24T13:23:31;7.22;;;3.65;;
74894;SDS011;63447;49.446;8.666;2023-08-24T13:25:57;9.00;;;3.90;;
74894;SDS011;63447;49.446;8.666;2023-08-24T13:28:23;8.13;;;3.78;;
74894;SDS011;63447;49.446;8.666;2023-08-24T13:30:50;7.10;;;3.83;;
74894;SDS011;63447;49.446;8.666;2023-08-24T13:33:16;6.43;;;3.75;;
74894;SDS011;63447;49.446;8.666;2023-08-24T13:35:42;6.43;;;3.10;;
74894;SDS011;63447;49.446;8.666;2023-08-24T13:38:09;6.30;;;3.45;;
74894;SDS011;63447;49.446;8.666;2023-08-24T13:40:37;5.78;;;3.22;;
74894;SDS011;63447;49.446;8.666;2023-08-24T13:43:05;5.45;;;3.40;;
74894;SDS011;63447;49.446;8.666;2023-08-24T13:45:30;8.45;;;3.75;;
74894;SDS011;63447;49.446;8.666;2023-08-24T13:47:56;6.65;;;3.92;;
74894;SDS011;63447;49.446;8.666;2023-08-24T13:50:24;8.95;;;3.70;;
74894;SDS011;63447;49.446;8.666;2023-08-24T13:52:49;9.03;;;3.87;;
74894;SDS011;63447;49.446;8.666;2023-08-24T13:55:15;5.20;;;3.40;;
74894;SDS011;63447;49.446;8.666;2023-08-24T13:57:42;9.30;;;3.90;;
74894;SDS011;63447;49.446;8.666;2023-08-24T14:00:10;6.30;;;3.53;;
74894;SDS011;63447;49.446;8.666;2023-08-24T14:02:40;6.55;;;3.85;;
74894;SDS011;63447;49.446;8.666;2023-08-24T14:05:09;7.30;;;3.95;;
74894;SDS011;63447;49.446;8.666;2023-08-24T14:07:35;6.82;;;3.53;;
74894;SDS011;63447;49.446;8.666;2023-08-24T14:10:03;8.82;;;3.70;;
74894;SDS011;63447;49.446;8.666;2023-08-24T14:12:29;5.53;;;3.63;;
74894;SDS011;63447;49.446;8.666;2023-08-24T14:14:55;7.32;;;4.30;;
74894;SDS011;63447;49.446;8.666;2023-08-24T14:17:20;6.90;;;4.40;;
74894;SDS011;63447;49.446;8.666;2023-08-24T14:19:46;6.33;;;3.70;;
74894;SDS011;63447;49.446;8.666;2023-08-24T14:22:11;9.00;;;4.10;;
74894;SDS011;63447;49.446;8.666;2023-08-24T14:24:36;8.17;;;4.50;;
74894;SDS011;63447;49.446;8.666;2023-08-24T14:27:02;6.70;;;4.10;;
74894;SDS011;63447;49.446;8.666;2023-08-24T14:29:27;7.68;;;4.03;;
74894;SDS011;63447;49.446;8.666;2023-08-24T14:31:57;12.88;;;4.78;;
74894;SDS011;63447;49.446;8.666;2023-08-24T14:34:22;10.07;;;4.55;;
74894;SDS011;63447;49.446;8.666;2023-08-24T14:36:47;8.30;;;4.05;;
74894;SDS011;63447;49.446;8.666;2023-08-24T14:39:13;6.67;;;4.20;;
74894;SDS011;63447;49.446;8.666;2023-08-24T14:41:38;8.65;;;4.03;;
74894;SDS011;63447;49.446;8.666;2023-08-24T14:44:04;6.88;;;4.00;;
74894;SDS011;63447;49.446;8.666;2023-08-24T14:46:29;9.77;;;3.95;;
74894;SDS011;63447;49.446;8.666;2023-08-24T14:48:55;8.60;;;3.58;;
74894;SDS011;63447;49.446;8.666;2023-08-24T14:51:20;6.27;;;3.30;;
74894;SDS011;63447;49.446;8.666;2023-08-24T14:53:45;7.90;;;3.70;;